Time;durP1;ratioP1;P1;durP2;ratioP2;P2;SDS_P1;SDS_P2;PMS_P1;PMS_P2;Temp;Humidity;BMP_temperature;BMP_pressure;BME280_temperature;BME280_humidity;BME280_pressure;Samples;Min_cycle;Max_cycle;Signal;HPM_P1;HPM_P2
2022/08/10 00:00:19;;;;;;;9.02;5.20;;;;;;;26.43;38.42;99688.41;5077517;28;20062;-72
2022/08/10 00:02:50;;;;;;;7.65;4.88;;;;;;;26.56;37.96;99690.59;5079282;28;20043;-72
2022/08/10 00:05:16;;;;;;;13.68;6.10;;;;;;;26.67;38.18;99701.22;5079448;28;20036;-72
2022/08/10 00:07:42;;;;;;;11.77;5.45;;;;;;;26.65;38.07;99700.69;5080028;28;20054;-72
2022/08/10 00:10:08;;;;;;;10.40;5.10;;;;;;;26.71;38.13;99691.47;5079030;28;20331;-72
2022/08/10 00:12:34;;;;;;;9.75;5.15;;;;;;;26.62;37.62;99678.69;5060451;28;20036;-72
2022/08/10 00:15:00;;;;;;;10.30;5.03;;;;;;;26.63;37.96;99681.13;5080306;28;20040;-72
2022/08/10 00:17:26;;;;;;;14.15;5.47;;;;;;;26.50;37.62;99672.69;5078706;28;20054;-72
2022/08/10 00:19:51;;;;;;;9.90;5.22;;;;;;;26.53;38.14;99677.56;5081464;28;20073;-72
2022/08/10 00:22:17;;;;;;;12.52;6.10;;;;;;;26.14;38.86;99679.88;5081944;28;20028;-72
2022/08/10 00:24:42;;;;;;;9.15;5.63;;;;;;;26.17;38.68;99682.03;5084117;28;20035;-72
2022/08/10 00:27:09;;;;;;;12.65;5.40;;;;;;;26.10;38.92;99685.00;5085988;28;20032;-72
2022/08/10 00:29:34;;;;;;;10.68;5.88;;;;;;;26.06;38.61;99681.19;5083156;28;20178;-72
2022/08/10 00:32:00;;;;;;;12.30;5.60;;;;;;;26.01;38.84;99686.59;5087186;28;20029;-72
2022/08/10 00:34:30;;;;;;;11.25;5.50;;;;;;;25.91;39.03;99687.34;5083284;28;20045;-72
2022/08/10 00:36:56;;;;;;;12.63;5.88;;;;;;;25.95;39.58;99674.06;5064017;28;20037;-72
2022/08/10 00:39:22;;;;;;;12.95;4.85;;;;;;;25.76;39.91;99666.38;5064028;28;20033;-72
2022/08/10 00:41:47;;;;;;;15.40;5.80;;;;;;;26.00;39.33;99674.09;5083622;28;20028;-72
2022/08/10 00:44:13;;;;;;;10.05;5.43;;;;;;;25.90;39.63;99679.47;5082837;28;20354;-72
2022/08/10 00:46:38;;;;;;;8.82;5.18;;;;;;;25.97;39.87;99682.75;5084055;28;20043;-72
2022/08/10 00:49:04;;;;;;;10.70;6.07;;;;;;;25.85;39.97;99677.53;5083867;28;20041;-72
2022/08/10 00:51:30;;;;;;;10.40;6.00;;;;;;;25.72;40.12;99678.81;5081307;28;20298;-72
2022/08/10 00:53:55;;;;;;;11.63;5.85;;;;;;;25.63;40.57;99669.53;5078797;28;20048;-72
2022/08/10 00:56:21;;;;;;;8.73;5.75;;;;;;;25.57;40.86;99667.03;5083014;28;20039;-72
2022/08/10 00:58:47;;;;;;;12.82;5.25;;;;;;;25.54;40.90;99679.22;5084244;28;20351;-72
2022/08/10 01:01:12;;;;;;;13.70;5.68;;;;;;;25.44;41.32;99671.84;5082071;28;20103;-72
2022/08/10 01:03:38;;;;;;;10.82;5.60;;;;;;;25.36;41.17;99668.81;5082390;28;20044;-72
2022/08/10 01:06:28;;;;;;;8.98;5.13;;;;;;;25.38;41.52;99670.19;5082756;28;20063;-72
2022/08/10 01:08:59;;;;;;;11.20;5.43;;;;;;;25.16;41.98;99672.19;5079923;28;20040;-72
2022/08/10 01:11:48;;;;;;;7.95;5.75;;;;;;;25.21;42.22;99679.53;5081013;28;20040;-72
2022/08/10 01:14:40;;;;;;;11.45;5.72;;;;;;;25.21;42.15;99677.66;5079476;28;21420;-72
2022/08/10 01:17:12;;;;;;;8.60;5.05;;;;;;;25.20;42.31;99669.78;5082739;28;20037;-72
2022/08/10 01:20:03;;;;;;;10.52;5.15;;;;;;;25.11;42.43;99672.97;5084507;28;20133;-72
2022/08/10 01:23:03;;;;;;;11.90;5.65;;;;;;;25.20;42.31;99667.88;5082911;28;20040;-72
2022/08/10 01:25:41;;;;;;;8.48;5.53;;;;;;;25.07;42.54;99657.50;5080111;28;20098;-72
2022/08/10 01:28:33;;;;;;;10.77;4.82;;;;;;;25.29;41.87;99658.19;5078467;28;20105;-72
2022/08/10 01:31:01;;;;;;;10.10;4.78;;;;;;;25.44;41.64;99646.63;5063342;28;20430;-72
2022/08/10 01:33:35;;;;;;;8.52;5.18;;;;;;;25.42;41.75;99651.50;5063223;28;20342;-72
2022/08/10 01:36:09;;;;;;;10.02;5.72;;;;;;;25.47;41.65;99651.53;5084629;28;20043;-72
2022/08/10 01:38:39;;;;;;;12.20;4.78;;;;;;;25.48;41.62;99638.78;5076841;28;20020;-72
2022/08/10 01:41:12;;;;;;;7.03;4.97;;;;;;;25.73;41.01;99641.69;5081835;28;20044;-72
2022/08/10 01:43:45;;;;;;;10.57;4.97;;;;;;;25.86;40.90;99630.34;5081758;28;20081;-72
2022/08/10 01:46:13;;;;;;;9.52;5.30;;;;;;;25.98;40.48;99649.13;5082761;28;20025;-72
2022/08/10 01:48:43;;;;;;;13.07;5.47;;;;;;;25.98;40.40;99649.13;5078857;28;20281;-72
2022/08/10 01:51:21;;;;;;;9.15;4.90;;;;;;;25.96;40.36;99646.66;5082165;28;20074;-72
2022/08/10 01:53:52;;;;;;;11.18;4.75;;;;;;;25.88;40.14;99644.47;5081396;28;20024;-72
2022/08/10 01:56:22;;;;;;;8.57;5.13;;;;;;;25.75;40.46;99640.34;5080042;28;20043;-72
2022/08/10 01:58:53;;;;;;;7.55;4.78;;;;;;;25.91;40.45;99645.81;5078851;28;20036;-72
2022/08/10 02:01:23;;;;;;;9.55;4.95;;;;;;;26.16;39.82;99648.66;5082557;28;20353;-72
2022/08/10 02:03:51;;;;;;;8.18;5.03;;;;;;;26.07;39.85;99648.38;5081397;28;20036;-72
2022/08/10 02:06:19;;;;;;;10.77;5.55;;;;;;;26.11;40.13;99645.13;5080991;28;20287;-72
2022/08/10 02:08:47;;;;;;;6.15;4.75;;;;;;;26.06;39.84;99633.16;5078083;28;20040;-72
2022/08/10 02:11:14;;;;;;;6.85;4.35;;;;;;;25.64;41.23;99645.94;5081292;28;20051;-72
2022/08/10 02:13:42;;;;;;;7.70;4.53;;;;;;;25.78;40.70;99641.69;5082479;28;20032;-72
2022/08/10 02:16:09;;;;;;;8.02;4.65;;;;;;;25.81;40.79;99649.31;5081996;28;20044;-72
2022/08/10 02:18:36;;;;;;;9.77;4.70;;;;;;;25.73;41.04;99636.25;5082260;28;20036;-72
2022/08/10 02:21:05;;;;;;;7.05;4.45;;;;;;;25.76;39.84;99643.88;5082108;28;20096;-72
2022/08/10 02:23:33;;;;;;;7.15;4.18;;;;;;;25.72;40.12;99640.03;5080193;28;20032;-72
2022/08/10 02:26:00;;;;;;;7.60;4.70;;;;;;;25.78;40.26;99649.84;5080600;28;20063;-72
2022/08/10 02:28:29;;;;;;;9.13;5.13;;;;;;;25.75;40.14;99651.19;5081935;28;20032;-72
2022/08/10 02:31:04;;;;;;;8.23;4.32;;;;;;;25.79;40.26;99654.19;5080522;28;20376;-72
2022/08/10 02:33:30;;;;;;;9.00;4.63;;;;;;;25.81;40.07;99656.63;5080173;28;20040;-72
2022/08/10 02:35:59;;;;;;;7.68;4.70;;;;;;;25.73;40.23;99649.81;5078725;28;20055;-72
2022/08/10 02:38:32;;;;;;;9.55;4.20;;;;;;;25.97;39.85;99655.63;5082382;28;20044;-72
2022/08/10 02:41:06;;;;;;;7.38;4.63;;;;;;;26.06;39.67;99665.72;5079759;28;20202;-72
2022/08/10 02:43:44;;;;;;;7.40;4.57;;;;;;;26.05;39.41;99664.09;5076765;28;20088;-72
2022/08/10 02:46:15;;;;;;;10.32;4.93;;;;;;;26.13;38.94;99670.91;5080619;28;20032;-72
2022/08/10 02:48:47;;;;;;;9.65;4.53;;;;;;;26.13;39.04;99670.91;5081452;28;20082;-72
2022/08/10 02:51:23;;;;;;;6.40;4.32;;;;;;;26.04;39.02;99662.47;5082684;28;20258;-72
2022/08/10 02:53:58;;;;;;;8.55;4.88;;;;;;;26.28;38.77;99668.25;5079207;28;20036;-72
2022/08/10 02:56:26;;;;;;;7.00;4.40;;;;;;;26.16;38.42;99664.13;5077489;28;20077;-72
2022/08/10 02:58:56;;;;;;;8.10;4.43;;;;;;;26.14;38.51;99672.53;5078329;28;20259;-72
2022/08/10 03:01:26;;;;;;;6.22;3.90;;;;;;;26.24;38.09;99672.56;5079613;28;20200;-72
2022/08/10 03:03:58;;;;;;;7.63;4.43;;;;;;;26.44;37.89;99680.00;5081278;28;20385;-72
2022/08/10 03:06:29;;;;;;;8.15;4.45;;;;;;;26.41;37.84;99694.09;5080123;28;20025;-72
2022/08/10 03:08:58;;;;;;;9.73;4.22;;;;;;;26.43;37.70;99694.66;5079078;28;20028;-72
2022/08/10 03:11:27;;;;;;;9.18;4.45;;;;;;;26.52;37.37;99700.38;5077637;28;20031;-72
2022/08/10 03:13:56;;;;;;;14.25;4.15;;;;;;;26.49;37.79;99700.91;5081026;28;20028;-72
2022/08/10 03:16:22;;;;;;;9.13;4.00;;;;;;;26.57;38.11;99697.66;5079505;28;20074;-72
2022/08/10 03:18:49;;;;;;;8.40;3.97;;;;;;;26.41;38.07;99669.66;5081077;28;20032;-72
2022/08/10 03:21:19;;;;;;;11.65;4.82;;;;;;;26.65;37.85;99699.88;5080681;28;20099;-72
2022/08/10 03:23:45;;;;;;;6.07;3.75;;;;;;;26.55;37.96;99689.78;5079538;28;20092;-72
2022/08/10 03:26:12;;;;;;;7.68;4.10;;;;;;;26.52;38.27;99695.75;5079411;28;20036;-72
2022/08/10 03:28:39;;;;;;;12.05;4.68;;;;;;;26.50;38.21;99699.81;5079312;28;20045;-72
2022/08/10 03:31:05;;;;;;;10.70;4.80;;;;;;;26.47;38.17;99700.38;5077285;28;20039;-72
2022/08/10 03:33:34;;;;;;;12.70;4.30;;;;;;;26.18;38.34;99706.22;5079854;28;20271;-72
2022/08/10 03:36:00;;;;;;;9.63;4.85;;;;;;;26.12;38.91;99701.84;5080514;28;20035;-72
2022/08/10 03:38:25;;;;;;;11.60;4.15;;;;;;;26.33;38.38;99706.28;5080178;28;20218;-72
2022/08/10 03:40:54;;;;;;;18.15;5.18;;;;;;;26.23;38.68;99697.28;5079573;28;20067;-72
2022/08/10 03:43:21;;;;;;;15.05;4.88;;;;;;;26.04;39.25;99705.88;5081403;28;20040;-72
2022/08/10 03:45:53;;;;;;;13.88;4.63;;;;;;;25.96;39.30;99700.09;5079870;28;20101;-72
2022/08/10 03:48:20;;;;;;;6.28;4.15;;;;;;;25.94;39.29;99697.66;5080369;28;20065;-72
2022/08/10 03:50:48;;;;;;;10.10;4.57;;;;;;;25.94;39.37;99696.84;5080461;28;20091;-72
2022/08/10 03:53:14;;;;;;;10.95;4.38;;;;;;;26.16;39.03;99712.97;5081006;28;20312;-72
2022/08/10 03:55:40;;;;;;;8.27;4.32;;;;;;;26.17;38.91;99701.03;5079860;28;20028;-72
2022/08/10 03:58:05;;;;;;;5.40;4.00;;;;;;;26.11;39.44;99710.25;5079962;28;20253;-72
2022/08/10 04:00:34;;;;;;;15.75;4.47;;;;;;;26.23;39.42;99708.13;5081476;28;20238;-72
2022/08/10 04:03:03;;;;;;;7.95;4.28;;;;;;;26.23;39.49;99703.50;5076373;28;20270;-72
2022/08/10 04:05:33;;;;;;;10.50;4.13;;;;;;;26.34;39.15;99709.81;5079587;28;20068;-72
2022/08/10 04:07:59;;;;;;;8.07;4.18;;;;;;;26.28;39.36;99710.84;5078732;28;20134;-72
2022/08/10 04:10:26;;;;;;;7.45;4.13;;;;;;;26.17;39.40;99712.72;5079090;28;20064;-72
2022/08/10 04:12:51;;;;;;;10.90;4.47;;;;;;;26.14;39.52;99712.44;5078003;28;20027;-72
2022/08/10 04:15:17;;;;;;;10.65;4.55;;;;;;;26.37;39.09;99717.44;5079244;28;20348;-72
2022/08/10 04:17:43;;;;;;;8.20;4.10;;;;;;;26.26;39.16;99715.75;5079329;28;20091;-72
2022/08/10 04:20:24;;;;;;;6.32;4.20;;;;;;;26.42;39.29;99724.78;5073999;28;20052;-72
2022/08/10 04:22:51;;;;;;;11.48;4.50;;;;;;;26.47;39.20;99720.19;5075741;28;20036;-72
2022/08/10 04:25:18;;;;;;;18.52;4.65;;;;;;;26.53;39.38;99723.72;5079879;28;20033;-72
2022/08/10 04:27:44;;;;;;;14.50;4.68;;;;;;;26.53;39.10;99718.31;5079581;28;20035;-72
2022/08/10 04:30:10;;;;;;;11.90;4.10;;;;;;;26.48;39.12;99724.53;5085906;28;20190;-72
2022/08/10 04:32:36;;;;;;;10.32;4.30;;;;;;;26.48;39.68;99721.81;5078875;28;20031;-72
2022/08/10 04:35:03;;;;;;;9.27;4.38;;;;;;;26.66;39.11;99729.47;5074796;28;20036;-72
2022/08/10 04:37:30;;;;;;;12.32;4.15;;;;;;;26.46;39.37;99731.31;5080275;28;20083;-72
2022/08/10 04:39:56;;;;;;;10.35;4.45;;;;;;;26.39;39.93;99720.69;5079567;28;20041;-72
2022/08/10 04:42:21;;;;;;;12.55;4.40;;;;;;;26.39;39.65;99726.94;5079426;28;20330;-72
2022/08/10 04:44:48;;;;;;;10.10;4.05;;;;;;;26.42;39.73;99722.06;5076736;28;20032;-72
2022/08/10 04:47:13;;;;;;;13.10;4.45;;;;;;;26.54;39.66;99714.50;5077974;28;20389;-72
2022/08/10 04:49:39;;;;;;;8.35;3.95;;;;;;;26.65;39.42;99722.41;5078005;28;20031;-72
2022/08/10 04:52:04;;;;;;;7.28;4.05;;;;;;;26.55;39.74;99725.09;5079993;28;20028;-72
2022/08/10 04:54:30;;;;;;;15.27;4.43;;;;;;;26.64;39.48;99719.97;5078578;28;20032;-72
2022/08/10 04:56:55;;;;;;;11.27;3.90;;;;;;;26.72;39.21;99714.81;5079458;28;20031;-72
2022/08/10 04:59:21;;;;;;;6.35;4.10;;;;;;;26.91;39.15;99706.97;5077424;28;20040;-72
2022/08/10 05:01:46;;;;;;;9.52;3.85;;;;;;;27.10;38.58;99704.59;5080212;28;20218;-72
2022/08/10 05:04:11;;;;;;;11.80;4.72;;;;;;;27.32;38.22;99702.41;5078919;28;20036;-72
2022/08/10 05:06:37;;;;;;;9.40;3.95;;;;;;;27.47;38.46;99712.47;5077821;28;20024;-72
2022/08/10 05:09:02;;;;;;;7.50;4.90;;;;;;;27.68;37.89;99710.56;5082319;28;20036;-72
2022/08/10 05:11:28;;;;;;;10.55;4.28;;;;;;;27.80;37.67;99696.66;5081342;28;20029;-72
2022/08/10 05:13:53;;;;;;;14.60;4.32;;;;;;;28.08;36.95;99711.53;5082059;28;20310;-72
2022/08/10 05:16:18;;;;;;;7.75;3.85;;;;;;;28.20;36.47;99703.88;5083794;28;20219;-72
2022/08/10 05:18:44;;;;;;;15.88;3.70;;;;;;;28.49;35.84;99702.13;5081958;28;20028;-72
2022/08/10 05:21:09;;;;;;;9.02;4.03;;;;;;;28.56;35.85;99705.38;5082788;28;20032;-72
2022/08/10 05:23:35;;;;;;;11.65;4.18;;;;;;;28.48;35.53;99699.69;5083222;28;20039;-72
2022/08/10 05:26:01;;;;;;;10.50;4.32;;;;;;;28.39;35.81;99709.56;5080995;28;20028;-72
2022/08/10 05:28:26;;;;;;;8.38;4.30;;;;;;;28.42;35.47;99707.06;5082039;28;20368;-72
2022/08/10 05:30:52;;;;;;;10.27;3.97;;;;;;;28.42;35.48;99711.72;5082181;28;20024;-73
2022/08/10 05:33:17;;;;;;;7.13;4.28;;;;;;;28.51;35.14;99701.84;5083054;28;20025;-72
2022/08/10 05:35:43;;;;;;;10.27;4.35;;;;;;;28.90;34.91;99708.19;5081507;28;20051;-72
2022/08/10 05:38:10;;;;;;;12.55;4.50;;;;;;;29.05;35.19;99715.44;5083905;28;20050;-72
2022/08/10 05:40:38;;;;;;;16.88;4.22;;;;;;;29.39;34.35;99717.34;5087971;28;20341;-72
2022/08/10 05:43:04;;;;;;;8.23;4.35;;;;;;;29.21;34.77;99710.69;5085133;28;20037;-72
2022/08/10 05:45:29;;;;;;;8.57;4.38;;;;;;;29.27;35.09;99719.66;5087059;28;20036;-72
2022/08/10 05:47:55;;;;;;;10.52;3.88;;;;;;;29.40;34.87;99718.97;5083947;28;20025;-72
2022/08/10 05:50:25;;;;;;;8.05;5.05;;;;;;;29.32;35.31;99727.78;5085408;28;20021;-72
2022/08/10 05:52:51;;;;;;;9.88;4.00;;;;;;;29.53;34.94;99721.06;5082817;28;20277;-72
2022/08/10 05:55:16;;;;;;;11.85;3.75;;;;;;;29.87;34.12;99719.06;5083376;28;20067;-72
2022/08/10 05:57:42;;;;;;;8.50;3.97;;;;;;;29.92;34.21;99720.94;5087715;28;20333;-72
2022/08/10 06:00:11;;;;;;;6.97;3.72;;;;;;;29.99;34.25;99726.88;5083588;28;20036;-72
2022/08/10 06:02:43;;;;;;;7.07;4.35;;;;;;;30.02;34.37;99729.03;5083923;28;20100;-72
2022/08/10 06:05:16;;;;;;;10.00;4.00;;;;;;;30.14;33.90;99734.09;5084020;28;20345;-72
2022/08/10 06:08:11;;;;;;;7.10;4.10;;;;;;;30.21;33.38;99731.84;5083592;28;20364;-72
2022/08/10 06:10:37;;;;;;;7.18;4.03;;;;;;;30.31;33.01;99734.47;5076172;28;20054;-73
2022/08/10 06:15:54;;;;;;;8.38;3.50;;;;;;;30.34;32.98;99733.06;5089693;28;20068;-72
2022/08/10 06:18:20;;;;;;;6.55;4.13;;;;;;;30.56;32.48;99733.31;5083159;28;20028;-72
2022/08/10 06:20:46;;;;;;;10.68;4.15;;;;;;;30.42;32.87;99727.75;5083351;28;20317;-72
2022/08/10 06:23:12;;;;;;;6.22;3.92;;;;;;;30.69;32.74;99726.34;5083785;28;20043;-72
2022/08/10 06:25:38;;;;;;;8.63;3.95;;;;;;;31.06;32.31;99723.56;5083064;28;20032;-73
2022/08/10 06:28:07;;;;;;;8.80;4.30;;;;;;;30.86;32.36;99723.88;5083032;28;20032;-72
2022/08/10 06:30:34;;;;;;;12.63;4.13;;;;;;;31.08;32.24;99715.06;5083375;28;20025;-72
2022/08/10 06:33:02;;;;;;;7.85;4.82;;;;;;;31.40;31.06;99725.25;5083403;28;20058;-72
2022/08/10 06:35:30;;;;;;;8.27;3.92;;;;;;;31.49;29.97;99726.19;5081311;28;20032;-73
2022/08/10 06:37:59;;;;;;;6.88;3.95;;;;;;;31.61;30.58;99722.97;5082860;28;20170;-72
2022/08/10 06:40:28;;;;;;;13.23;4.82;;;;;;;31.79;30.48;99724.03;5081749;28;20034;-73
2022/08/10 06:42:57;;;;;;;16.20;4.13;;;;;;;31.66;30.68;99725.63;5081896;28;20515;-73
2022/08/10 06:45:29;;;;;;;10.25;3.67;;;;;;;31.88;30.23;99730.44;5082537;28;20024;-73
2022/08/10 06:48:04;;;;;;;7.13;4.05;;;;;;;31.92;29.82;99726.78;5081187;28;20197;-73
2022/08/10 06:50:44;;;;;;;8.45;3.50;;;;;;;32.22;29.97;99724.56;5081384;28;20036;-72
2022/08/10 06:53:15;;;;;;;8.68;3.60;;;;;;;32.62;29.13;99728.41;5082816;28;20036;-73
2022/08/10 06:55:45;;;;;;;6.70;3.88;;;;;;;32.86;29.10;99730.91;5080149;28;20032;-73
2022/08/10 06:58:12;;;;;;;8.15;3.67;;;;;;;33.16;28.95;99727.44;5076523;28;20340;-73
2022/08/10 07:00:40;;;;;;;7.45;4.45;;;;;;;33.42;28.18;99726.84;5079971;28;20044;-73
2022/08/10 07:03:10;;;;;;;5.95;3.17;;;;;;;33.57;26.57;99730.00;5077430;28;20036;-73
2022/08/10 07:05:39;;;;;;;9.45;3.60;;;;;;;33.42;26.59;99735.09;5076423;28;20075;-73
2022/08/10 07:08:07;;;;;;;13.90;3.58;;;;;;;33.34;27.07;99744.06;5082780;28;20064;-73
2022/08/10 07:10:35;;;;;;;7.72;3.20;;;;;;;33.82;26.94;99734.03;5077766;28;20361;-73
2022/08/10 07:13:03;;;;;;;8.27;3.22;;;;;;;34.00;26.17;99737.66;5075369;28;20047;-73
2022/08/10 07:15:29;;;;;;;5.63;3.05;;;;;;;33.86;26.43;99734.22;5079987;28;20297;-73
2022/08/10 07:17:56;;;;;;;7.82;3.40;;;;;;;33.60;26.33;99737.63;5078467;28;20032;-72
2022/08/10 07:20:23;;;;;;;6.95;3.38;;;;;;;33.61;27.37;99739.25;5079034;28;20021;-73
2022/08/10 07:22:51;;;;;;;5.95;3.20;;;;;;;33.85;27.22;99732.59;5079242;28;20025;-73
2022/08/10 07:25:26;;;;;;;8.20;3.85;;;;;;;33.83;26.95;99732.09;5078386;28;20046;-73
2022/08/10 07:27:54;;;;;;;8.13;4.00;;;;;;;33.77;27.20;99736.09;5077555;28;20040;-73
2022/08/10 07:30:20;;;;;;;7.20;4.03;;;;;;;33.90;27.61;99735.19;5078694;28;20066;-73
2022/08/10 07:32:49;;;;;;;5.40;3.75;;;;;;;33.83;27.40;99738.41;5076983;28;20020;-73
2022/08/10 07:35:17;;;;;;;5.30;3.60;;;;;;;33.55;26.57;99737.75;5076774;28;20044;-72
2022/08/10 07:37:48;;;;;;;6.45;4.15;;;;;;;32.80;29.13;99740.38;5078144;28;20039;-73
2022/08/10 07:40:16;;;;;;;5.07;3.85;;;;;;;32.70;29.32;99742.19;5078346;28;20024;-72
2022/08/10 07:42:44;;;;;;;10.45;4.53;;;;;;;32.48;29.27;99735.84;5077466;28;20077;-72
2022/08/10 07:45:10;;;;;;;9.07;3.90;;;;;;;32.24;29.52;99755.22;5081509;28;20393;-73
2022/08/10 07:47:41;;;;;;;7.13;3.90;;;;;;;32.19;29.15;99745.16;5080587;28;20234;-72
2022/08/10 07:50:09;;;;;;;7.53;3.88;;;;;;;31.71;29.17;99744.72;5078189;28;20024;-72
2022/08/10 07:52:37;;;;;;;6.10;4.22;;;;;;;32.54;29.39;99749.13;5077657;28;20024;-72
2022/08/10 07:55:03;;;;;;;10.98;4.25;;;;;;;32.18;28.77;99743.53;5080799;28;20207;-72
2022/08/10 07:57:33;;;;;;;6.10;3.38;;;;;;;32.28;28.99;99743.38;5079451;28;20040;-73
2022/08/10 08:00:04;;;;;;;9.20;3.70;;;;;;;32.35;29.67;99748.44;5077359;28;20099;-72
2022/08/10 08:02:36;;;;;;;7.55;3.97;;;;;;;32.39;29.25;99738.50;5077612;28;20312;-72
2022/08/10 08:05:07;;;;;;;6.72;3.20;;;;;;;32.33;30.54;99743.28;5080346;28;20057;-73
2022/08/10 08:07:35;;;;;;;6.38;3.90;;;;;;;31.67;29.51;99741.75;5080682;28;20028;-72
2022/08/10 08:10:01;;;;;;;6.40;3.63;;;;;;;31.45;30.27;99738.84;5078596;28;20052;-72
2022/08/10 08:12:30;;;;;;;8.73;3.80;;;;;;;31.55;30.83;99735.13;5081910;28;20031;-72
2022/08/10 08:14:57;;;;;;;6.80;3.72;;;;;;;31.26;30.62;99732.63;5085687;28;20035;-72
2022/08/10 08:17:25;;;;;;;8.52;4.78;;;;;;;31.28;30.62;99736.69;5100687;28;20035;-72
2022/08/10 08:19:53;;;;;;;11.10;3.65;;;;;;;31.69;29.80;99739.53;5091638;28;20068;-73
2022/08/10 08:22:19;;;;;;;5.32;3.90;;;;;;;31.98;29.09;99736.53;5078175;28;20059;-73
2022/08/10 08:24:46;;;;;;;9.30;4.10;;;;;;;32.38;29.82;99728.66;5075600;28;20033;-73
2022/08/10 08:27:18;;;;;;;9.30;3.85;;;;;;;32.09;28.80;99731.66;5070594;28;20032;-72
2022/08/10 08:29:47;;;;;;;13.68;3.67;;;;;;;32.21;29.37;99729.22;5080975;28;20117;-72
2022/08/10 08:32:17;;;;;;;6.45;3.28;;;;;;;32.43;28.12;99716.78;5078572;28;20031;-73
2022/08/10 08:34:45;;;;;;;11.95;4.22;;;;;;;32.84;27.36;99727.66;5079463;28;20369;-73
2022/08/10 08:37:13;;;;;;;9.80;3.53;;;;;;;33.10;26.60;99717.72;5079761;28;20033;-73
2022/08/10 08:39:40;;;;;;;5.38;3.70;;;;;;;33.27;26.55;99722.50;5080325;28;20032;-72
2022/08/10 08:42:56;;;;;;;6.63;3.45;;;;;;;33.27;27.47;99722.50;5080656;28;20043;-73
2022/08/10 08:45:56;;;;;;;4.70;3.38;;;;;;;33.45;25.49;99718.81;5064948;28;20064;-73
2022/08/10 08:48:44;;;;;;;5.57;3.42;;;;;;;33.75;25.74;99713.63;5084592;28;20339;-73
2022/08/10 08:51:31;;;;;;;6.10;3.33;;;;;;;33.70;25.97;99713.75;5083854;28;20081;-73
2022/08/10 08:54:19;;;;;;;9.27;2.97;;;;;;;33.73;25.38;99704.88;5084960;28;20149;-73
2022/08/10 08:57:16;;;;;;;10.82;3.55;;;;;;;33.66;26.75;99701.78;5083087;28;20342;-73
2022/08/10 09:00:00;;;;;;;8.85;3.30;;;;;;;33.60;25.98;99707.41;5063531;28;20029;-73
2022/08/10 09:02:51;;;;;;;11.85;3.25;;;;;;;34.18;25.00;99706.38;5069200;28;20024;-73
2022/08/10 09:05:48;;;;;;;5.00;3.22;;;;;;;34.24;24.78;99699.59;5083648;28;20036;-73
2022/08/10 09:08:50;;;;;;;4.70;3.53;;;;;;;34.39;26.36;99697.56;5085284;28;20028;-73
2022/08/10 09:11:32;;;;;;;5.45;3.42;;;;;;;34.19;25.51;99691.50;5081187;28;20078;-73
2022/08/10 09:14:39;;;;;;;6.82;3.83;;;;;;;34.24;25.91;99698.78;5063210;28;20033;-73
2022/08/10 09:17:27;;;;;;;4.13;3.10;;;;;;;34.27;26.39;99685.22;5067939;28;20067;-73
2022/08/10 09:20:08;;;;;;;5.70;3.45;;;;;;;34.29;26.88;99684.88;5081890;28;20028;-73
2022/08/10 09:22:41;;;;;;;5.90;3.10;;;;;;;34.45;25.44;99691.59;5081040;28;20093;-73
2022/08/10 09:25:20;;;;;;;7.93;3.30;;;;;;;34.57;26.27;99688.22;5082152;28;20218;-73
2022/08/10 09:28:01;;;;;;;7.57;3.40;;;;;;;34.53;25.43;99693.53;5084035;28;20401;-73
2022/08/10 09:30:36;;;;;;;6.40;3.20;;;;;;;34.49;26.61;99691.75;5082418;28;20036;-73
2022/08/10 09:33:14;;;;;;;8.15;3.97;;;;;;;34.61;25.91;99685.63;5079995;28;20268;-73
2022/08/10 09:36:07;;;;;;;5.75;3.10;;;;;;;34.51;27.09;99682.06;5079235;28;20043;-72
2022/08/10 09:38:45;;;;;;;6.30;3.15;;;;;;;34.39;26.98;99679.16;5081114;28;20029;-73
2022/08/10 09:41:23;;;;;;;6.72;3.50;;;;;;;33.90;27.98;99683.00;5079625;28;20032;-73
2022/08/10 09:44:18;;;;;;;4.68;3.33;;;;;;;33.91;28.71;99676.38;5082885;28;20247;-73
2022/08/10 09:47:08;;;;;;;4.18;3.30;;;;;;;33.59;28.22;99675.59;5081674;28;20051;-73
2022/08/10 09:50:01;;;;;;;5.63;3.50;;;;;;;33.09;28.62;99671.38;5082019;28;20240;-73
2022/08/10 09:52:50;;;;;;;8.43;3.42;;;;;;;32.83;29.03;99672.00;5078214;28;20028;-73
2022/08/10 09:55:27;;;;;;;8.18;3.97;;;;;;;32.65;29.17;99672.97;5080035;28;20317;-72
2022/08/10 09:58:17;;;;;;;8.38;3.78;;;;;;;32.39;29.82;99661.78;5081206;28;20032;-72
2022/08/10 10:00:54;;;;;;;4.25;3.78;;;;;;;32.42;30.38;99660.34;5081418;28;20131;-73
2022/08/10 10:03:36;;;;;;;6.45;3.70;;;;;;;32.24;29.97;99670.28;5083629;28;20181;-73
2022/08/10 10:06:11;;;;;;;6.35;4.03;;;;;;;31.93;30.75;99665.44;5081871;28;20040;-73
2022/08/10 10:08:43;;;;;;;6.00;3.60;;;;;;;32.11;30.47;99669.16;5081765;28;20396;-72
2022/08/10 10:11:14;;;;;;;5.05;3.42;;;;;;;32.33;30.39;99663.00;5080088;28;20040;-73
2022/08/10 10:14:08;;;;;;;7.22;3.50;;;;;;;32.30;30.25;99663.63;5079696;28;20047;-73
2022/08/10 10:17:11;;;;;;;9.30;4.13;;;;;;;32.29;30.59;99664.75;5081554;28;20020;-73
2022/08/10 10:19:54;;;;;;;10.00;3.70;;;;;;;32.08;34.99;99659.63;5061986;28;20636;-73
2022/08/10 10:22:41;;;;;;;10.43;4.83;;;;;;;32.30;34.31;99661.69;5066295;28;20048;-73
2022/08/10 10:25:34;;;;;;;8.23;3.65;;;;;;;31.69;34.16;99660.16;5079124;28;20233;-73
2022/08/10 10:28:22;;;;;;;6.75;3.88;;;;;;;31.90;32.18;99652.34;5079958;28;20025;-72
2022/08/10 10:31:03;;;;;;;4.75;3.53;;;;;;;32.16;31.89;99651.81;5080559;28;20319;-73
2022/08/10 10:34:01;;;;;;;8.60;3.80;;;;;;;32.06;31.47;99641.88;5078151;28;20025;-73
2022/08/10 10:36:29;;;;;;;8.98;3.70;;;;;;;32.28;29.93;99643.94;5062468;28;20040;-73
2022/08/10 10:38:57;;;;;;;6.03;3.72;;;;;;;32.33;31.30;99630.94;5063485;28;20357;-73
2022/08/10 10:41:26;;;;;;;7.93;3.50;;;;;;;32.56;30.81;99641.94;5080088;28;20322;-73
2022/08/10 10:44:13;;;;;;;5.40;3.67;;;;;;;32.50;30.71;99645.91;5081969;28;20226;-73
2022/08/10 10:46:38;;;;;;;6.30;3.28;;;;;;;32.72;30.35;99640.44;5081631;28;20028;-73
2022/08/10 10:49:16;;;;;;;6.57;3.75;;;;;;;32.75;29.93;99637.06;5080729;28;20348;-73
2022/08/10 10:52:29;;;;;;;8.23;3.30;;;;;;;32.89;31.31;99632.38;5080429;28;20040;-73
2022/08/10 10:55:25;;;;;;;5.55;3.13;;;;;;;32.77;30.29;99632.13;5079476;28;20068;-73
2022/08/10 10:57:55;;;;;;;6.22;3.38;;;;;;;32.58;30.63;99635.00;5083194;28;20032;-73
2022/08/10 11:00:25;;;;;;;6.35;3.88;;;;;;;32.40;33.85;99626.97;5079447;28;20109;-73
2022/08/10 11:02:59;;;;;;;11.43;5.20;;;;;;;32.18;38.52;99633.94;5081718;28;20043;-73
2022/08/10 11:05:32;;;;;;;16.63;5.03;;;;;;;31.01;43.24;99603.34;5078505;28;20322;-73
2022/08/10 11:08:03;;;;;;;25.88;5.95;;;;;;;30.39;43.12;99634.66;5080208;28;20028;-73
2022/08/10 11:10:54;;;;;;;29.15;5.63;;;;;;;29.32;48.14;99652.22;5077531;28;20041;-72
2022/08/10 11:13:27;;;;;;;33.45;6.18;;;;;;;27.08;54.24;99698.63;5080372;28;20055;-72
2022/08/10 11:16:07;;;;;;;44.43;10.60;;;;;;;24.63;72.84;99654.06;5078681;28;20100;-72
2022/08/10 11:18:35;;;;;;;32.97;9.55;;;;;;;22.32;82.95;99736.38;5082719;28;20699;-74
2022/08/10 11:47:22;;;;;;;3.70;3.20;;;;;;;23.44;80.06;99697.94;5149769;27;20646;-69
2022/08/10 11:50:12;;;;;;;5.20;3.50;;;;;;;23.82;79.46;99711.50;5133805;28;20035;-69
2022/08/10 11:52:56;;;;;;;5.32;3.40;;;;;;;23.94;76.30;99716.00;5136675;28;20031;-69
2022/08/10 11:55:25;;;;;;;7.88;3.83;;;;;;;24.09;76.78;99717.03;5140243;27;20034;-69
2022/08/10 11:57:56;;;;;;;9.32;4.40;;;;;;;24.26;79.31;99714.25;5139677;28;20042;-69
2022/08/10 12:00:29;;;;;;;11.85;4.82;;;;;;;24.37;78.80;99699.00;5139744;28;20037;-69
2022/08/10 12:02:58;;;;;;;8.75;4.53;;;;;;;24.46;78.64;99684.75;5136347;28;20098;-69
2022/08/10 12:05:38;;;;;;;8.32;4.07;;;;;;;24.62;76.85;99696.56;5120465;28;20058;-69
2022/08/10 12:08:04;;;;;;;6.55;4.28;;;;;;;24.82;74.67;99702.19;5139898;28;20369;-69
2022/08/10 12:10:32;;;;;;;7.53;4.20;;;;;;;24.79;73.74;99693.75;5139684;28;20038;-69
2022/08/10 12:13:10;;;;;;;6.75;4.82;;;;;;;24.87;74.18;99689.75;5139384;27;20027;-69
2022/08/10 12:15:57;;;;;;;6.68;4.90;;;;;;;25.00;74.13;99673.13;5139296;27;20031;-69
2022/08/10 12:18:47;;;;;;;8.75;4.80;;;;;;;25.21;76.11;99674.13;5139455;28;20031;-69
2022/08/10 12:21:26;;;;;;;9.65;4.97;;;;;;;25.20;75.17;99667.06;5135997;28;20068;-69
2022/08/10 12:24:07;;;;;;;6.35;5.00;;;;;;;25.35;75.70;99668.00;5138511;27;20106;-69